createdAt,value
2022-09-01T00:00:52.460Z,75.50
2022-09-01T00:03:55.944Z,75.50
2022-09-01T00:06:59.963Z,75.60
2022-09-01T00:10:05.262Z,75.50
2022-09-01T00:13:08.947Z,75.50
2022-09-01T00:16:14.231Z,75.50
2022-09-01T00:19:16.664Z,75.60
2022-09-01T00:22:18.962Z,75.70
2022-09-01T00:25:21.963Z,75.60
2022-09-01T00:28:24.116Z,75.70
2022-09-01T00:31:33.278Z,75.80
2022-09-01T00:34:35.597Z,75.80
2022-09-01T00:37:37.725Z,75.80
2022-09-01T00:40:40.228Z,75.90
2022-09-01T00:43:56.296Z,75.90
2022-09-01T00:46:59.742Z,75.90
2022-09-01T00:50:06.316Z,75.90
2022-09-01T00:53:09.826Z,76.00
2022-09-01T00:56:13.757Z,76.00
2022-09-01T00:59:18.497Z,76.00
2022-09-01T01:02:20.885Z,75.90
2022-09-01T01:05:28.066Z,76.00
2022-09-01T01:08:36.578Z,76.00
2022-09-01T01:11:40.719Z,76.10
2022-09-01T01:14:45.972Z,76.20
2022-09-01T01:17:48.308Z,76.20
2022-09-01T01:21:26.773Z,76.10
2022-09-01T01:24:33.456Z,76.20
2022-09-01T01:27:42.563Z,76.20
2022-09-01T01:30:52.853Z,76.20
2022-09-01T01:33:57.037Z,76.20
2022-09-01T01:37:00.033Z,76.10
2022-09-01T01:40:03.067Z,76.20
2022-09-01T01:43:05.922Z,76.20
2022-09-01T01:46:10.288Z,76.20
2022-09-01T01:49:19.685Z,76.20
2022-09-01T01:52:26.306Z,76.20
2022-09-01T01:55:31.251Z,76.20
2022-09-01T01:58:36.107Z,76.20
2022-09-01T02:01:49.370Z,76.10
2022-09-01T02:04:51.647Z,76.20
2022-09-01T02:07:56.321Z,76.10
2022-09-01T02:11:01.145Z,76.20
2022-09-01T02:14:07.861Z,76.20
2022-09-01T02:17:10.348Z,76.20
2022-09-01T02:20:15.530Z,76.20
2022-09-01T02:23:24.596Z,76.20
2022-09-01T02:26:39.741Z,76.30
2022-09-01T02:29:43.370Z,76.20
2022-09-01T02:32:45.976Z,76.30
2022-09-01T02:35:55.179Z,76.30
2022-09-01T02:38:57.505Z,76.30
2022-09-01T02:42:01.762Z,76.30
2022-09-01T02:45:04.818Z,76.40
2022-09-01T02:48:10.377Z,76.50
2022-09-01T02:51:17.080Z,76.40
2022-09-01T02:54:19.667Z,76.50
2022-09-01T02:57:23.132Z,76.50
2022-09-01T03:00:33.163Z,76.50
2022-09-01T03:03:35.934Z,76.50
2022-09-01T03:06:39.368Z,76.60
2022-09-01T03:09:43.437Z,76.60
2022-09-01T03:12:45.641Z,76.60
2022-09-01T03:15:51.515Z,76.70
2022-09-01T03:18:53.792Z,76.70
2022-09-01T03:22:00.302Z,76.70
2022-09-01T03:25:08.398Z,76.80
2022-09-01T03:28:13.251Z,76.80
2022-09-01T03:31:15.995Z,76.90
2022-09-01T03:34:23.667Z,76.90
2022-09-01T03:37:28.810Z,76.80
2022-09-01T03:40:36.126Z,77.00
2022-09-01T03:43:38.476Z,77.00
2022-09-01T03:46:48.262Z,77.00
2022-09-01T03:49:51.851Z,77.10
2022-09-01T03:52:59.006Z,77.10
2022-09-01T03:56:01.686Z,77.10
2022-09-01T03:59:04.553Z,77.10
2022-09-01T04:02:09.760Z,77.30
2022-09-01T04:05:12.290Z,77.20
2022-09-01T04:08:14.516Z,77.20
2022-09-01T04:11:24.369Z,77.20
2022-09-01T04:14:29.285Z,77.30
2022-09-01T04:17:51.534Z,77.30
2022-09-01T04:20:57.019Z,77.30
2022-09-01T04:24:00.326Z,77.40
2022-09-01T04:27:04.195Z,77.40
2022-09-01T04:30:10.872Z,77.50
2022-09-01T04:33:16.649Z,77.50
2022-09-01T04:36:30.843Z,77.50
2022-09-01T04:39:33.249Z,77.50
2022-09-01T04:42:35.723Z,77.50
2022-09-01T04:45:38.777Z,77.50
2022-09-01T04:48:46.062Z,77.40
2022-09-01T04:51:54.294Z,77.50
2022-09-01T04:54:58.830Z,77.50
2022-09-01T04:58:01.958Z,77.30
2022-09-01T05:01:15.597Z,77.40
2022-09-01T05:04:33.989Z,77.20
2022-09-01T05:07:38.111Z,77.20
2022-09-01T05:10:46.890Z,77.20
2022-09-01T05:13:57.941Z,77.20
2022-09-01T05:17:02.180Z,77.00
2022-09-01T05:20:05.581Z,77.00
2022-09-01T05:23:09.358Z,77.00
2022-09-01T05:26:20.797Z,77.00
2022-09-01T05:29:22.995Z,77.00
2022-09-01T05:32:26.792Z,76.90
2022-09-01T05:35:32.564Z,76.80
2022-09-01T05:38:35.769Z,76.90
2022-09-01T05:41:40.236Z,76.80
2022-09-01T05:44:44.493Z,76.80
2022-09-01T05:47:49.011Z,76.80
2022-09-01T05:50:59.878Z,76.80
2022-09-01T05:54:08.232Z,76.80
2022-09-01T05:57:33.281Z,76.40
2022-09-01T06:00:34.888Z,75.50
2022-09-01T06:03:38.262Z,75.40
2022-09-01T06:07:06.792Z,75.50
2022-09-01T06:10:14.933Z,75.90
2022-09-01T06:13:21.888Z,75.90
2022-09-01T06:16:31.322Z,75.90
2022-09-01T06:19:37.219Z,75.80
2022-09-01T06:22:41.156Z,75.80
2022-09-01T06:25:47.583Z,75.80
2022-09-01T06:28:55.018Z,75.80
2022-09-01T06:31:59.065Z,75.90
2022-09-01T06:35:05.738Z,75.80
2022-09-01T06:38:10.740Z,75.90
2022-09-01T06:41:20.472Z,75.90
2022-09-01T06:44:23.352Z,76.70
2022-09-01T06:47:37.137Z,75.90
2022-09-01T06:54:03.122Z,76.00
2022-09-01T07:00:30.181Z,76.00
2022-09-01T07:03:33.250Z,76.00
2022-09-01T07:14:16.718Z,76.10
2022-09-01T07:17:23.229Z,76.10
2022-09-01T07:20:29.464Z,76.00
2022-09-01T07:26:55.055Z,76.10
2022-09-01T07:29:58.246Z,76.10
2022-09-01T07:33:41.614Z,76.10
2022-09-01T07:39:48.815Z,76.00
2022-09-01T07:42:59.127Z,76.00
2022-09-01T07:43:37.712Z,75.90
2022-09-01T07:53:43.311Z,75.90
2022-09-01T07:56:48.021Z,76.00
2022-09-01T07:59:51.882Z,75.90
2022-09-01T08:02:57.300Z,75.90
2022-09-01T08:06:08.883Z,75.80
2022-09-01T08:09:25.212Z,75.90
2022-09-01T08:12:35.225Z,75.90
2022-09-01T08:15:41.828Z,75.90
2022-09-01T08:19:03.396Z,75.80
2022-09-01T08:22:13.080Z,76.60
2022-09-01T08:25:31.401Z,75.90
2022-09-01T08:28:34.523Z,75.80
2022-09-01T08:31:36.895Z,75.90
2022-09-01T08:34:39.300Z,75.80
2022-09-01T08:37:41.581Z,75.70
2022-09-01T08:40:51.495Z,75.60
2022-09-01T08:44:38.840Z,75.40
2022-09-01T08:48:14.926Z,75.30
2022-09-01T08:51:37.055Z,74.90
2022-09-01T08:54:49.935Z,74.90
2022-09-01T08:57:59.150Z,74.80
2022-09-01T09:01:14.763Z,74.80
2022-09-01T09:04:30.288Z,74.60
2022-09-01T09:07:49.608Z,74.70
2022-09-01T09:10:59.964Z,74.50
2022-09-01T09:14:02.832Z,74.10
2022-09-01T09:17:05.379Z,73.90
2022-09-01T09:20:09.195Z,73.60
2022-09-01T09:23:24.909Z,73.70
2022-09-01T09:26:27.440Z,73.70
2022-09-01T09:29:29.956Z,73.50
2022-09-01T09:36:37.385Z,73.50
2022-09-01T09:39:40.368Z,73.40
2022-09-01T09:43:01.992Z,73.30
2022-09-01T09:46:25.763Z,73.40
2022-09-01T09:49:34.579Z,73.40
2022-09-01T09:52:38.941Z,73.20
2022-09-01T09:56:19.714Z,73.10
2022-09-01T09:59:53.807Z,73.30
2022-09-01T10:03:16.946Z,73.20
2022-09-01T10:06:42.082Z,73.40
2022-09-01T10:09:44.264Z,73.30
2022-09-01T10:12:46.498Z,73.20
2022-09-01T10:16:01.206Z,73.10
2022-09-01T10:19:12.553Z,73.20
2022-09-01T10:22:15.692Z,73.20
2022-09-01T10:25:21.332Z,73.00
2022-09-01T10:28:26.883Z,72.90
2022-09-01T10:31:32.716Z,73.00
2022-09-01T10:34:38.384Z,72.90
2022-09-01T10:37:41.984Z,72.80
2022-09-01T10:40:49.733Z,72.90
2022-09-01T10:43:52.434Z,72.70
2022-09-01T10:46:59.938Z,72.70
2022-09-01T10:50:25.853Z,72.70
2022-09-01T10:53:55.938Z,72.60
2022-09-01T10:57:08.742Z,72.60
2022-09-01T11:00:36.137Z,72.30
2022-09-01T11:03:52.179Z,72.30
2022-09-01T11:07:14.477Z,72.30
2022-09-01T11:10:32.080Z,72.10
2022-09-01T11:13:56.479Z,72.10
2022-09-01T11:17:19.179Z,72.80
2022-09-01T11:20:36.852Z,72.10
2022-09-01T11:23:39.390Z,72.00
2022-09-01T11:26:48.518Z,71.90
2022-09-01T11:30:02.895Z,71.90
2022-09-01T11:33:28.103Z,72.00
2022-09-01T11:36:37.168Z,72.80
2022-09-01T11:39:49.216Z,71.90
2022-09-01T11:42:54.443Z,71.90
2022-09-01T11:46:15.858Z,72.20
2022-09-01T11:49:35.127Z,71.80
2022-09-01T11:52:39.078Z,71.90
2022-09-01T11:55:44.454Z,71.70
2022-09-01T11:58:47.671Z,71.70
2022-09-01T12:01:58.399Z,71.80
2022-09-01T12:05:03.486Z,71.80
2022-09-01T12:08:18.471Z,71.70
2022-09-01T12:11:32.917Z,71.80
2022-09-01T12:14:55.299Z,71.70
2022-09-01T12:18:21.049Z,71.70
2022-09-01T12:21:42.938Z,71.80
2022-09-01T12:24:47.959Z,71.70
2022-09-01T12:27:51.514Z,71.50
2022-09-01T12:30:55.549Z,71.50
2022-09-01T12:33:57.902Z,71.50
2022-09-01T12:37:24.556Z,71.50
2022-09-01T12:40:35.137Z,72.30
2022-09-01T12:43:39.786Z,71.40
2022-09-01T12:46:46.440Z,71.30
2022-09-01T12:49:52.044Z,71.30
2022-09-01T12:52:58.388Z,71.20
2022-09-01T12:56:05.506Z,71.20
2022-09-01T12:59:36.204Z,71.10
2022-09-01T13:02:46.665Z,71.10
2022-09-01T13:05:54.440Z,71.00
2022-09-01T13:08:56.730Z,70.90
2022-09-01T13:12:20.725Z,70.80
2022-09-01T13:15:23.089Z,70.90
2022-09-01T13:18:26.676Z,70.70
2022-09-01T13:21:30.500Z,70.60
2022-09-01T13:24:32.968Z,70.70
2022-09-01T13:27:35.175Z,70.80
2022-09-01T13:30:38.445Z,70.80
2022-09-01T13:37:03.247Z,70.50
2022-09-01T13:40:08.535Z,70.50
2022-09-01T13:43:11.894Z,70.60
2022-09-01T13:46:14.352Z,70.40
2022-09-01T13:52:40.868Z,69.70
2022-09-01T13:55:43.753Z,69.50
2022-09-01T13:58:48.875Z,69.80
2022-09-01T14:01:51.424Z,69.60
2022-09-01T14:04:53.772Z,69.80
2022-09-01T14:07:57.207Z,69.50
2022-09-01T14:11:00.217Z,69.60
2022-09-01T14:14:02.793Z,69.50
2022-09-01T14:17:05.305Z,69.40
2022-09-01T14:20:12.935Z,70.40
2022-09-01T14:23:16.054Z,69.40
2022-09-01T14:26:18.502Z,69.50
2022-09-01T14:29:20.714Z,69.40
2022-09-01T14:32:27.035Z,69.20
2022-09-01T14:35:33.234Z,69.10
2022-09-01T14:38:35.813Z,69.30
2022-09-01T14:41:37.952Z,69.30
2022-09-01T14:44:40.290Z,69.30
2022-09-01T14:47:44.236Z,69.20
2022-09-01T14:50:49.038Z,69.10
2022-09-01T14:53:52.780Z,69.00
2022-09-01T15:00:17.530Z,69.10
2022-09-01T15:03:22.837Z,69.30
2022-09-01T15:06:25.992Z,69.10
2022-09-01T15:09:28.267Z,69.20
2022-09-01T15:12:31.190Z,68.80
2022-09-01T15:15:34.046Z,69.00
2022-09-01T15:18:36.241Z,69.10
2022-09-01T15:21:40.581Z,69.10
2022-09-01T15:24:43.738Z,69.10
2022-09-01T15:27:46.820Z,69.10
2022-09-01T15:30:49.223Z,69.10
2022-09-01T15:33:51.913Z,69.00
2022-09-01T15:36:54.399Z,68.90
2022-09-01T15:39:56.598Z,68.80
2022-09-01T15:43:00.251Z,68.80
2022-09-01T15:46:04.624Z,68.70
2022-09-01T15:49:09.470Z,68.90
2022-09-01T15:52:11.670Z,68.90
2022-09-01T15:55:13.822Z,68.80
2022-09-01T15:58:19.224Z,69.00
2022-09-01T16:01:22.439Z,68.70
2022-09-01T16:04:27.797Z,68.60
2022-09-01T16:07:30.382Z,68.60
2022-09-01T16:10:35.076Z,68.50
2022-09-01T16:13:43.042Z,68.50
2022-09-01T16:16:57.989Z,68.80
2022-09-01T16:20:06.822Z,68.70
2022-09-01T16:23:12.950Z,68.70
2022-09-01T16:26:20.470Z,68.70
2022-09-01T16:30:12.701Z,69.00
2022-09-01T16:33:20.520Z,68.80
2022-09-01T16:36:47.923Z,68.60
2022-09-01T16:40:14.210Z,69.40
2022-09-01T16:43:27.137Z,68.60
2022-09-01T16:46:45.707Z,68.60
2022-09-01T16:50:09.885Z,68.70
2022-09-01T16:53:18.972Z,68.60
2022-09-01T16:56:21.349Z,68.60
2022-09-01T16:59:36.841Z,68.40
2022-09-01T17:03:08.190Z,68.60
2022-09-01T17:06:57.285Z,68.50
2022-09-01T17:10:22.615Z,68.50
2022-09-01T17:13:44.963Z,68.60
2022-09-01T17:16:49.463Z,68.50
2022-09-01T17:19:54.508Z,68.30
2022-09-01T17:22:59.365Z,68.30
2022-09-01T17:26:12.646Z,68.20
2022-09-01T17:29:24.717Z,68.30
2022-09-01T17:33:15.284Z,68.40
2022-09-01T17:36:46.984Z,68.60
2022-09-01T17:40:16.582Z,68.30
2022-09-01T17:43:45.657Z,68.20
2022-09-01T17:47:10.251Z,68.30
2022-09-01T17:50:18.123Z,68.30
2022-09-01T17:53:35.027Z,68.20
2022-09-01T17:56:55.123Z,68.10
2022-09-01T18:00:44.647Z,68.00
2022-09-01T18:04:23.542Z,68.20
2022-09-01T18:07:47.719Z,68.10
2022-09-01T18:10:58.494Z,67.90
2022-09-01T18:14:17.053Z,67.80
2022-09-01T18:17:29.441Z,68.00
2022-09-01T18:20:45.663Z,67.80
2022-09-01T18:23:52.820Z,68.50
2022-09-01T18:26:55.116Z,68.50
2022-09-01T18:29:57.542Z,67.60
2022-09-01T18:33:08.364Z,67.50
2022-09-01T18:36:31.335Z,67.70
2022-09-01T18:40:03.963Z,67.60
2022-09-01T18:43:43.022Z,67.70
2022-09-01T18:46:54.896Z,67.50
2022-09-01T18:50:12.223Z,67.40
2022-09-01T18:53:24.557Z,67.40
2022-09-01T18:56:26.702Z,67.50
2022-09-01T18:59:37.623Z,67.20
2022-09-01T19:02:56.803Z,67.20
2022-09-01T19:06:30.034Z,67.30
2022-09-01T19:09:51.133Z,67.20
2022-09-01T19:13:14.600Z,67.00
2022-09-01T19:16:46.838Z,67.80
2022-09-01T19:19:52.306Z,67.10
2022-09-01T19:23:36.064Z,66.90
2022-09-01T19:26:42.881Z,67.00
2022-09-01T19:29:53.201Z,66.70
2022-09-01T19:32:59.541Z,66.60
2022-09-01T19:36:07.221Z,67.50
2022-09-01T19:39:17.431Z,66.60
2022-09-01T19:42:43.303Z,66.70
2022-09-01T19:45:56.894Z,66.70
2022-09-01T19:49:17.353Z,66.40
2022-09-01T19:52:47.917Z,66.60
2022-09-01T19:56:19.262Z,66.60
2022-09-01T19:59:43.184Z,66.50
2022-09-01T20:03:05.291Z,66.50
2022-09-01T20:06:11.064Z,66.40
2022-09-01T20:09:20.651Z,66.30
2022-09-01T20:12:31.431Z,66.30
2022-09-01T20:15:42.456Z,66.10
2022-09-01T20:18:48.944Z,66.10
2022-09-01T20:21:51.327Z,66.30
2022-09-01T20:24:58.346Z,66.20
2022-09-01T20:28:04.091Z,66.10
2022-09-01T20:31:17.318Z,66.00
2022-09-01T20:34:42.421Z,66.00
2022-09-01T20:37:49.605Z,66.00
2022-09-01T20:40:51.836Z,65.90
2022-09-01T20:43:56.371Z,65.90
2022-09-01T20:46:58.601Z,65.80
2022-09-01T20:50:02.727Z,65.90
2022-09-01T20:53:26.456Z,66.00
2022-09-01T20:57:00.790Z,65.90
2022-09-01T21:00:16.003Z,65.90
2022-09-01T21:03:36.265Z,65.80
2022-09-01T21:06:49.044Z,65.80
2022-09-01T21:10:10.665Z,65.70
2022-09-01T21:13:34.487Z,65.80
2022-09-01T21:16:42.552Z,65.80
2022-09-01T21:19:59.816Z,65.80
2022-09-01T21:23:02.011Z,65.80
2022-09-01T21:26:09.210Z,65.60
2022-09-01T21:29:43.763Z,65.60
2022-09-01T21:32:46.043Z,65.80
2022-09-01T21:35:48.270Z,65.80
2022-09-01T21:38:50.691Z,65.60
2022-09-01T21:41:53.330Z,65.60
2022-09-01T21:44:56.781Z,65.70
2022-09-01T21:47:59.292Z,65.70
2022-09-01T21:51:04.761Z,65.60
2022-09-01T21:54:07.479Z,65.80
2022-09-01T21:57:10.092Z,65.70
2022-09-01T22:00:25.492Z,65.60
2022-09-01T22:03:27.793Z,65.70
2022-09-01T22:06:30.555Z,65.80
2022-09-01T22:09:32.967Z,65.80
2022-09-01T22:12:40.370Z,65.70
2022-09-01T22:15:45.828Z,65.80
2022-09-01T22:18:48.394Z,65.80
2022-09-01T22:21:50.968Z,65.80
2022-09-01T22:24:53.204Z,65.80
2022-09-01T22:27:58.692Z,65.80
2022-09-01T22:31:01.444Z,65.80
2022-09-01T22:34:04.548Z,65.80
2022-09-01T22:37:06.812Z,65.90
2022-09-01T22:40:10.246Z,66.80
2022-09-01T22:43:16.738Z,65.80
2022-09-01T22:46:21.270Z,65.90
2022-09-01T22:49:24.312Z,65.90
2022-09-01T22:52:26.660Z,65.80
2022-09-01T22:55:28.864Z,65.80
2022-09-01T22:58:31.037Z,65.90
2022-09-01T23:01:37.369Z,65.80
2022-09-01T23:04:42.449Z,65.90
2022-09-01T23:07:44.701Z,65.90
2022-09-01T23:10:47.019Z,65.90
2022-09-01T23:13:49.284Z,65.90
2022-09-01T23:16:52.836Z,65.90
2022-09-01T23:19:55.281Z,65.90
2022-09-01T23:22:57.476Z,65.90
2022-09-01T23:26:05.514Z,65.90
2022-09-01T23:29:07.761Z,65.90
2022-09-01T23:32:10.079Z,66.00
2022-09-01T23:35:12.655Z,65.90
2022-09-01T23:38:18.041Z,66.00
2022-09-01T23:41:24.303Z,66.10
2022-09-01T23:44:26.477Z,66.00
2022-09-01T23:47:28.696Z,66.30
2022-09-01T23:50:30.914Z,66.10
2022-09-01T23:53:35.407Z,66.00
2022-09-01T23:56:38.384Z,66.00
2022-09-01T23:59:40.565Z,66.10
